createdAt,value
2018-04-29T00:00:18.116Z,98585.38
2018-04-29T00:02:51.640Z,98584.34
2018-04-29T00:05:25.315Z,98559.06
2018-04-29T00:07:58.876Z,98567.48
2018-04-29T00:10:34.316Z,98560.98
2018-04-29T00:13:09.043Z,98550.22
2018-04-29T00:15:42.567Z,98556.55
2018-04-29T00:18:16.075Z,98564.72
2018-04-29T00:20:49.628Z,98562.58
2018-04-29T00:23:23.194Z,98553.87
2018-04-29T00:25:56.851Z,98555.32
2018-04-29T00:28:30.408Z,98555.48
2018-04-29T00:31:04.037Z,98552.99
2018-04-29T00:33:37.592Z,98548.18
2018-04-29T00:36:11.688Z,98535.20
2018-04-29T00:38:45.480Z,98537.67
2018-04-29T00:41:19.089Z,98529.69
2018-04-29T00:43:52.620Z,98537.23
2018-04-29T00:46:26.400Z,98538.82
2018-04-29T00:48:59.934Z,98535.86
2018-04-29T00:51:45.524Z,98543.63
2018-04-29T00:54:19.396Z,98531.72
2018-04-29T00:56:54.509Z,98531.17
2018-04-29T00:59:28.256Z,98539.59
2018-04-29T01:02:02.925Z,98544.55
2018-04-29T01:04:36.692Z,98551.11
2018-04-29T01:07:10.202Z,98541.41
2018-04-29T01:09:43.728Z,98539.98
2018-04-29T01:12:17.535Z,98536.45
2018-04-29T01:14:51.071Z,98525.89
2018-04-29T01:17:25.549Z,98521.64
2018-04-29T01:19:59.235Z,98508.48
2018-04-29T01:22:32.969Z,98505.57
2018-04-29T01:25:06.528Z,98503.34
2018-04-29T01:27:40.276Z,98509.25
2018-04-29T01:30:14.865Z,98513.23
2018-04-29T01:32:48.655Z,98512.77
2018-04-29T01:35:22.458Z,98507.02
2018-04-29T01:37:56.002Z,98514.48
2018-04-29T01:40:29.723Z,98524.18
2018-04-29T01:43:03.264Z,98524.50
2018-04-29T01:45:37.000Z,98523.86
2018-04-29T01:48:10.547Z,98522.74
2018-04-29T01:50:44.167Z,98508.92
2018-04-29T01:53:17.739Z,98513.72
2018-04-29T01:55:51.399Z,98509.89
2018-04-29T01:58:24.983Z,98502.30
2018-04-29T02:00:58.736Z,98507.73
2018-04-29T02:03:32.337Z,98502.59
2018-04-29T02:06:06.077Z,98497.88
2018-04-29T02:08:39.693Z,98493.17
2018-04-29T02:11:13.391Z,98483.11
2018-04-29T02:13:46.992Z,98482.78
2018-04-29T02:16:20.744Z,98474.72
2018-04-29T02:18:54.311Z,98484.30
2018-04-29T02:21:27.917Z,98478.95
2018-04-29T02:24:01.599Z,98474.08
2018-04-29T02:26:35.228Z,98467.62
2018-04-29T02:29:08.871Z,98465.70
2018-04-29T02:31:42.336Z,98465.06
2018-04-29T02:34:15.898Z,98460.00
2018-04-29T02:36:49.459Z,98442.88
2018-04-29T02:39:23.052Z,98449.91
2018-04-29T02:41:56.644Z,98451.94
2018-04-29T02:44:30.486Z,98449.55
2018-04-29T02:47:13.195Z,98454.61
2018-04-29T02:49:46.833Z,98457.80
2018-04-29T02:52:20.359Z,98464.34
2018-04-29T02:54:53.925Z,98466.98
2018-04-29T02:57:27.452Z,98464.71
2018-04-29T03:00:01.117Z,98461.44
2018-04-29T03:02:34.645Z,98457.28
2018-04-29T03:05:08.344Z,98457.05
2018-04-29T03:07:41.876Z,98447.31
2018-04-29T03:10:15.461Z,98445.15
2018-04-29T03:12:49.016Z,98443.45
2018-04-29T03:15:22.735Z,98449.44
2018-04-29T03:17:56.433Z,98444.36
2018-04-29T03:20:30.180Z,98447.23
2018-04-29T03:23:03.972Z,98441.16
2018-04-29T03:25:37.616Z,98431.43
2018-04-29T03:28:11.132Z,98431.09
2018-04-29T03:30:44.656Z,98419.68
2018-04-29T03:33:18.276Z,98418.28
2018-04-29T03:35:51.871Z,98410.36
2018-04-29T03:38:25.496Z,98400.72
2018-04-29T03:40:59.000Z,98409.11
2018-04-29T03:43:32.867Z,98408.19
2018-04-29T03:46:06.420Z,98405.47
2018-04-29T03:48:39.988Z,98400.95
2018-04-29T03:51:13.605Z,98400.45
2018-04-29T03:53:47.225Z,98408.27
2018-04-29T03:56:20.776Z,98410.34
2018-04-29T03:59:06.348Z,98407.14
2018-04-29T04:01:51.984Z,98404.25
2018-04-29T04:04:25.664Z,98403.33
2018-04-29T04:06:59.324Z,98399.76
2018-04-29T04:09:32.851Z,98397.03
2018-04-29T04:12:06.528Z,98395.69
2018-04-29T04:14:40.140Z,98398.14
2018-04-29T04:17:13.819Z,98400.83
2018-04-29T04:19:47.379Z,98395.53
2018-04-29T04:22:21.012Z,98397.05
2018-04-29T04:24:54.616Z,98399.93
2018-04-29T04:27:28.216Z,98403.17
2018-04-29T04:30:01.797Z,98411.33
2018-04-29T04:32:35.356Z,98401.79
2018-04-29T04:35:09.075Z,98412.20
2018-04-29T04:37:42.758Z,98399.75
2018-04-29T04:40:16.733Z,98391.07
2018-04-29T04:42:50.315Z,98391.92
2018-04-29T04:45:24.077Z,98394.00
2018-04-29T04:47:57.807Z,98392.97
2018-04-29T04:50:31.443Z,98394.08
2018-04-29T04:53:04.996Z,98390.88
2018-04-29T04:55:38.508Z,98394.87
2018-04-29T04:58:12.196Z,98399.92
2018-04-29T05:00:45.792Z,98391.85
2018-04-29T05:03:19.624Z,98385.10
2018-04-29T05:05:53.152Z,98378.05
2018-04-29T05:08:26.705Z,98383.45
2018-04-29T05:11:00.212Z,98400.58
2018-04-29T05:13:33.768Z,98398.81
2018-04-29T05:16:07.287Z,98401.75
2018-04-29T05:18:40.860Z,98404.68
2018-04-29T05:21:14.368Z,98400.65
2018-04-29T05:23:47.924Z,98400.11
2018-04-29T05:26:21.551Z,98398.36
2018-04-29T05:28:55.437Z,98401.75
2018-04-29T05:31:29.102Z,98394.38
2018-04-29T05:34:02.724Z,98393.87
2018-04-29T05:36:36.305Z,98397.36
2018-04-29T05:39:10.105Z,98391.88
2018-04-29T05:41:43.769Z,98392.81
2018-04-29T05:44:17.368Z,98392.05
2018-04-29T05:46:51.008Z,98386.67
2018-04-29T05:49:24.607Z,98383.54
2018-04-29T05:51:58.247Z,98384.75
2018-04-29T05:54:32.058Z,98376.61
2018-04-29T05:57:05.591Z,98361.91
2018-04-29T05:59:39.118Z,98354.66
2018-04-29T06:02:12.848Z,98339.73
2018-04-29T06:04:46.404Z,98335.65
2018-04-29T06:07:20.288Z,98314.48
2018-04-29T06:09:53.895Z,98311.21
2018-04-29T06:12:27.572Z,98314.63
2018-04-29T06:15:01.133Z,98318.67
2018-04-29T06:17:34.661Z,98316.41
2018-04-29T06:20:08.287Z,98322.75
2018-04-29T06:22:42.047Z,98320.26
2018-04-29T06:25:16.396Z,98316.05
2018-04-29T06:27:49.975Z,98310.41
2018-04-29T06:30:23.735Z,98302.36
2018-04-29T06:32:57.475Z,98296.06
2018-04-29T06:35:30.975Z,98302.11
2018-04-29T06:38:04.720Z,98290.39
2018-04-29T06:40:38.318Z,98295.05
2018-04-29T06:43:12.072Z,98298.91
2018-04-29T06:45:45.704Z,98302.49
2018-04-29T06:48:19.345Z,98310.38
2018-04-29T06:50:53.050Z,98309.63
2018-04-29T06:53:26.622Z,98305.75
2018-04-29T06:56:00.136Z,98313.78
2018-04-29T06:58:33.701Z,98319.17
2018-04-29T07:01:07.404Z,98325.27
2018-04-29T07:03:41.035Z,98332.37
2018-04-29T07:06:14.892Z,98346.45
2018-04-29T07:08:48.549Z,98363.20
2018-04-29T07:11:22.587Z,98376.95
2018-04-29T07:13:56.287Z,98370.98
2018-04-29T07:16:29.923Z,98378.03
2018-04-29T07:19:03.596Z,98374.55
2018-04-29T07:21:37.323Z,98367.23
2018-04-29T07:24:11.160Z,98369.95
2018-04-29T07:26:44.688Z,98376.87
2018-04-29T07:29:18.268Z,98384.99
2018-04-29T07:31:51.865Z,98389.77
2018-04-29T07:34:25.619Z,98370.22
2018-04-29T07:36:59.253Z,98354.52
2018-04-29T07:39:33.232Z,98334.69
2018-04-29T07:42:06.756Z,98327.77
2018-04-29T07:44:40.621Z,98346.81
2018-04-29T07:47:14.371Z,98334.65
2018-04-29T07:49:48.130Z,98323.86
2018-04-29T07:52:22.022Z,98326.92
2018-04-29T07:54:55.703Z,98313.23
2018-04-29T07:57:29.305Z,98303.09
2018-04-29T08:00:02.856Z,98303.24
2018-04-29T08:02:36.538Z,98297.27
2018-04-29T08:05:10.295Z,98293.20
2018-04-29T08:07:43.815Z,98292.98
2018-04-29T08:10:17.592Z,98305.20
2018-04-29T08:12:51.291Z,98296.02
2018-04-29T08:15:24.955Z,98291.40
2018-04-29T08:17:58.767Z,98286.30
2018-04-29T08:20:32.238Z,98303.34
2018-04-29T08:23:05.764Z,98309.97
2018-04-29T08:25:39.343Z,98306.23
2018-04-29T08:28:13.051Z,98303.61
2018-04-29T08:30:46.587Z,98296.72
2018-04-29T08:33:20.360Z,98303.61
2018-04-29T08:35:54.136Z,98315.20
2018-04-29T08:38:27.685Z,98310.95
2018-04-29T08:41:01.518Z,98308.97
2018-04-29T08:43:35.316Z,98300.00
2018-04-29T08:46:09.053Z,98303.64
2018-04-29T08:48:42.839Z,98296.31
2018-04-29T08:51:16.415Z,98291.15
2018-04-29T08:53:50.050Z,98299.34
2018-04-29T08:59:22.479Z,98316.19
2018-04-29T09:01:56.174Z,98308.92
2018-04-29T09:04:29.947Z,98310.30
2018-04-29T09:07:03.501Z,98309.83
2018-04-29T09:09:37.159Z,98296.44
2018-04-29T09:12:10.897Z,98292.51
2018-04-29T09:14:44.571Z,98281.75
2018-04-29T09:17:18.948Z,98274.56
2018-04-29T09:19:52.740Z,98266.82
2018-04-29T09:22:26.715Z,98265.16
2018-04-29T09:25:00.371Z,98257.74
2018-04-29T09:27:33.867Z,98246.75
2018-04-29T09:30:07.416Z,98237.20
2018-04-29T09:32:41.052Z,98222.62
2018-04-29T09:35:14.581Z,98228.50
2018-04-29T09:37:48.140Z,98218.37
2018-04-29T09:40:21.900Z,98217.51
2018-04-29T09:42:55.456Z,98212.63
2018-04-29T09:45:29.015Z,98219.13
2018-04-29T09:48:02.727Z,98231.06
2018-04-29T09:50:36.264Z,98235.66
2018-04-29T09:53:09.822Z,98223.83
2018-04-29T09:55:43.493Z,98220.56
2018-04-29T09:58:17.052Z,98220.75
2018-04-29T10:00:50.587Z,98228.94
2018-04-29T10:03:24.144Z,98222.86
2018-04-29T10:05:57.672Z,98218.91
2018-04-29T10:08:31.240Z,98209.02
2018-04-29T10:11:04.820Z,98200.14
2018-04-29T10:13:42.912Z,98198.78
2018-04-29T10:16:16.607Z,98179.67
2018-04-29T10:18:50.348Z,98190.14
2018-04-29T10:21:23.969Z,98176.84
2018-04-29T10:23:57.652Z,98175.20
2018-04-29T10:26:31.324Z,98182.02
2018-04-29T10:29:04.921Z,98178.70
2018-04-29T10:31:38.548Z,98173.66
2018-04-29T10:34:12.196Z,98165.59
2018-04-29T10:36:46.009Z,98164.37
2018-04-29T10:39:19.565Z,98167.76
2018-04-29T10:41:53.158Z,98151.52
2018-04-29T10:44:26.824Z,98155.53
2018-04-29T10:47:00.596Z,98143.91
2018-04-29T10:49:34.397Z,98123.31
2018-04-29T10:52:07.925Z,98113.23
2018-04-29T10:54:41.512Z,98098.52
2018-04-29T10:57:15.121Z,98079.66
2018-04-29T10:59:48.697Z,98093.13
2018-04-29T11:02:22.280Z,98101.17
2018-04-29T11:04:56.039Z,98108.02
2018-04-29T11:07:29.607Z,98120.23
2018-04-29T11:10:03.257Z,98112.97
2018-04-29T11:12:36.939Z,98113.03
2018-04-29T11:15:10.635Z,98113.61
2018-04-29T11:17:44.625Z,98106.94
2018-04-29T11:20:18.352Z,98113.80
2018-04-29T11:22:52.119Z,98118.28
2018-04-29T11:25:25.842Z,98110.51
2018-04-29T11:27:59.404Z,98089.31
2018-04-29T11:30:32.923Z,98077.32
2018-04-29T11:33:06.420Z,98078.55
2018-04-29T11:35:40.216Z,98094.72
2018-04-29T11:38:13.796Z,98101.19
2018-04-29T11:40:47.516Z,98106.98
2018-04-29T11:43:21.271Z,98107.80
2018-04-29T11:45:54.826Z,98123.10
2018-04-29T11:48:28.303Z,98123.41
2018-04-29T11:51:01.888Z,98106.77
2018-04-29T11:53:35.640Z,98091.95
2018-04-29T11:56:09.220Z,98083.27
2018-04-29T11:58:42.757Z,98061.59
2018-04-29T12:01:16.436Z,98038.62
2018-04-29T12:03:49.953Z,98048.06
2018-04-29T12:06:36.621Z,98057.85
2018-04-29T12:09:10.363Z,98055.32
2018-04-29T12:11:43.836Z,98051.11
2018-04-29T12:14:17.344Z,98048.06
2018-04-29T12:16:50.974Z,98051.66
2018-04-29T12:19:24.613Z,98045.62
2018-04-29T12:21:58.184Z,98044.84
2018-04-29T12:24:31.761Z,98045.62
2018-04-29T12:27:05.503Z,98046.22
2018-04-29T12:29:39.294Z,98036.59
2018-04-29T12:32:13.088Z,98036.02
2018-04-29T12:34:46.724Z,98026.94
2018-04-29T12:37:20.281Z,98023.55
2018-04-29T12:39:53.884Z,98016.58
2018-04-29T12:42:27.569Z,98007.27
2018-04-29T12:45:01.232Z,98009.04
2018-04-29T12:47:34.872Z,97998.64
2018-04-29T12:50:08.385Z,97997.66
2018-04-29T12:52:42.020Z,97984.08
2018-04-29T12:55:15.596Z,97988.44
2018-04-29T12:57:49.132Z,97994.97
2018-04-29T13:00:22.682Z,97974.27
2018-04-29T13:02:56.441Z,97986.76
2018-04-29T13:05:30.123Z,97967.58
2018-04-29T13:08:03.576Z,97959.31
2018-04-29T13:10:37.152Z,97950.28
2018-04-29T13:13:10.941Z,97941.96
2018-04-29T13:15:44.575Z,97937.24
2018-04-29T13:18:18.306Z,97928.39
2018-04-29T13:20:51.888Z,97931.96
2018-04-29T13:23:25.426Z,97910.70
2018-04-29T13:25:59.144Z,97902.38
2018-04-29T13:28:32.708Z,97922.28
2018-04-29T13:31:06.499Z,97902.36
2018-04-29T13:33:40.156Z,97898.36
2018-04-29T13:36:13.905Z,97902.77
2018-04-29T13:38:47.618Z,97900.58
2018-04-29T13:41:21.389Z,97907.65
2018-04-29T13:43:55.202Z,97900.38
2018-04-29T13:46:29.108Z,97887.81
2018-04-29T13:49:02.592Z,97886.77
2018-04-29T13:51:36.136Z,97876.94
2018-04-29T13:54:09.704Z,97885.13
2018-04-29T13:56:43.513Z,97887.92
2018-04-29T13:59:17.166Z,97890.75
2018-04-29T14:01:50.780Z,97893.18
2018-04-29T14:04:24.304Z,97892.14
2018-04-29T14:06:57.960Z,97885.98
2018-04-29T14:09:31.471Z,97881.22
2018-04-29T14:12:05.227Z,97878.48
2018-04-29T14:14:38.789Z,97885.22
2018-04-29T14:17:12.564Z,97879.91
2018-04-29T14:19:46.201Z,97878.44
2018-04-29T14:22:20.094Z,97883.38
2018-04-29T14:24:53.560Z,97895.67
2018-04-29T14:27:27.352Z,97893.28
2018-04-29T14:30:01.067Z,97878.55
2018-04-29T14:32:34.690Z,97883.72
2018-04-29T14:35:08.312Z,97886.54
2018-04-29T14:37:42.287Z,97893.28
2018-04-29T14:40:16.025Z,97887.97
2018-04-29T14:42:49.530Z,97897.83
2018-04-29T14:45:23.141Z,97884.28
2018-04-29T14:47:56.897Z,97896.43
2018-04-29T14:50:30.480Z,97897.08
2018-04-29T14:53:04.314Z,97885.69
2018-04-29T14:55:37.935Z,97892.83
2018-04-29T14:58:11.557Z,97888.05
2018-04-29T15:00:45.130Z,97892.90
2018-04-29T15:03:18.905Z,97899.05
2018-04-29T15:05:52.509Z,97885.88
2018-04-29T15:08:26.021Z,97895.73
2018-04-29T15:10:59.679Z,97900.70
2018-04-29T15:13:33.260Z,97898.73
2018-04-29T15:16:07.275Z,97892.88
2018-04-29T15:18:52.872Z,97886.97
2018-04-29T15:21:26.563Z,97884.39
2018-04-29T15:24:00.363Z,97887.74
2018-04-29T15:26:33.968Z,97881.27
2018-04-29T15:29:07.529Z,97874.77
2018-04-29T15:31:41.187Z,97853.11
2018-04-29T15:34:14.959Z,97837.98
2018-04-29T15:36:48.684Z,97833.42
2018-04-29T15:39:23.395Z,97829.09
2018-04-29T15:41:57.152Z,97823.38
2018-04-29T15:44:30.712Z,97829.83
2018-04-29T15:47:04.788Z,97825.84
2018-04-29T15:49:38.437Z,97827.88
2018-04-29T15:52:12.028Z,97821.30
2018-04-29T15:54:45.665Z,97817.38
2018-04-29T15:57:19.224Z,97820.78
2018-04-29T15:59:52.795Z,97817.62
2018-04-29T16:02:26.356Z,97819.80
2018-04-29T16:04:59.992Z,97813.75
2018-04-29T16:07:33.813Z,97800.10
2018-04-29T16:10:07.452Z,97794.56
2018-04-29T16:12:41.256Z,97795.91
2018-04-29T16:15:14.744Z,97788.32
2018-04-29T16:17:48.547Z,97785.70
2018-04-29T16:20:22.084Z,97783.30
2018-04-29T16:22:55.612Z,97775.11
2018-04-29T16:25:29.155Z,97773.53
2018-04-29T16:28:02.900Z,97770.92
2018-04-29T16:30:36.468Z,97765.38
2018-04-29T16:33:09.996Z,97766.59
2018-04-29T16:35:43.573Z,97763.16
2018-04-29T16:38:17.310Z,97757.16
2018-04-29T16:40:50.997Z,97755.50
2018-04-29T16:43:24.526Z,97748.59
2018-04-29T16:45:58.333Z,97749.97
2018-04-29T16:48:31.882Z,97742.09
2018-04-29T16:51:05.613Z,97745.78
2018-04-29T16:53:39.228Z,97743.25
2018-04-29T16:56:12.787Z,97736.19
2018-04-29T16:58:46.408Z,97735.45
2018-04-29T17:01:20.049Z,97729.84
2018-04-29T17:03:53.696Z,97729.20
2018-04-29T17:06:27.411Z,97719.40
2018-04-29T17:09:01.060Z,97709.80
2018-04-29T17:11:34.667Z,97703.28
2018-04-29T17:14:08.347Z,97698.25
2018-04-29T17:16:41.972Z,97687.73
2018-04-29T17:19:15.508Z,97688.30
2018-04-29T17:21:49.132Z,97696.06
2018-04-29T17:24:22.652Z,97695.59
2018-04-29T17:26:56.207Z,97687.50
2018-04-29T17:29:29.975Z,97688.45
2018-04-29T17:32:03.504Z,97690.14
2018-04-29T17:34:37.184Z,97680.29
2018-04-29T17:37:10.744Z,97677.20
2018-04-29T17:39:44.443Z,97672.27
2018-04-29T17:42:18.221Z,97673.77
2018-04-29T17:44:51.938Z,97668.16
2018-04-29T17:47:25.695Z,97665.58
2018-04-29T17:49:59.500Z,97666.42
2018-04-29T17:52:33.064Z,97659.17
2018-04-29T17:55:06.740Z,97649.55
2018-04-29T17:57:40.408Z,97658.31
2018-04-29T18:00:14.253Z,97644.14
2018-04-29T18:02:47.897Z,97645.88
2018-04-29T18:05:21.704Z,97637.09
2018-04-29T18:07:55.313Z,97636.13
2018-04-29T18:10:28.936Z,97635.38
2018-04-29T18:13:02.469Z,97635.02
2018-04-29T18:15:36.168Z,97633.25
2018-04-29T18:18:09.832Z,97629.94
2018-04-29T18:20:43.585Z,97629.36
2018-04-29T18:23:17.117Z,97623.74
2018-04-29T18:25:50.797Z,97615.91
2018-04-29T18:28:24.328Z,97613.55
2018-04-29T18:30:57.957Z,97614.36
2018-04-29T18:33:31.697Z,97613.54
2018-04-29T18:36:05.472Z,97606.67
2018-04-29T18:38:39.284Z,97609.22
2018-04-29T18:41:12.894Z,97611.78
2018-04-29T18:43:46.676Z,97613.56
2018-04-29T18:46:20.234Z,97611.58
2018-04-29T18:48:53.844Z,97616.29
2018-04-29T18:51:27.949Z,97605.09
2018-04-29T18:54:01.456Z,97599.19
2018-04-29T18:56:35.092Z,97599.98
2018-04-29T18:59:08.880Z,97592.32
2018-04-29T19:01:42.409Z,97605.10
2018-04-29T19:04:16.216Z,97600.78
2018-04-29T19:06:49.746Z,97592.90
2018-04-29T19:09:23.346Z,97595.09
2018-04-29T19:11:57.085Z,97587.84
2018-04-29T19:14:30.830Z,97585.45
2018-04-29T19:17:04.587Z,97581.55
2018-04-29T19:19:38.131Z,97590.80
2018-04-29T19:22:11.745Z,97587.47
2018-04-29T19:24:45.501Z,97581.37
2018-04-29T19:27:19.154Z,97575.28
2018-04-29T19:29:52.984Z,97575.91
2018-04-29T19:32:26.534Z,97567.44
2018-04-29T19:35:00.072Z,97566.83
2018-04-29T19:37:33.795Z,97552.67
2018-04-29T19:40:07.566Z,97549.36
2018-04-29T19:42:41.096Z,97541.53
2018-04-29T19:45:14.804Z,97531.34
2018-04-29T19:47:48.461Z,97519.75
2018-04-29T19:50:22.003Z,97509.53
2018-04-29T19:52:55.771Z,97499.13
2018-04-29T19:55:29.623Z,97487.34
2018-04-29T19:58:03.235Z,97473.81
2018-04-29T20:00:36.907Z,97467.14
2018-04-29T20:03:10.570Z,97459.50
2018-04-29T20:05:44.105Z,97451.06
2018-04-29T20:08:17.799Z,97441.25
2018-04-29T20:10:51.443Z,97433.58
2018-04-29T20:13:25.085Z,97424.59
2018-04-29T20:15:58.808Z,97419.28
2018-04-29T20:18:32.343Z,97412.95
2018-04-29T20:21:06.436Z,97400.01
2018-04-29T20:23:39.960Z,97396.08
2018-04-29T20:26:23.980Z,97382.55
2018-04-29T20:28:57.592Z,97372.13
2018-04-29T20:31:31.351Z,97366.41
2018-04-29T20:34:05.007Z,97363.87
2018-04-29T20:39:43.508Z,97354.46
2018-04-29T20:42:17.124Z,97346.02
2018-04-29T20:44:50.664Z,97346.97
2018-04-29T20:47:24.331Z,97342.46
2018-04-29T20:49:57.895Z,97325.58
2018-04-29T20:52:31.480Z,97327.34
2018-04-29T20:55:05.196Z,97317.33
2018-04-29T20:57:38.901Z,97315.76
2018-04-29T21:00:12.426Z,97311.25
2018-04-29T21:02:45.989Z,97293.19
2018-04-29T21:05:19.512Z,97291.98
2018-04-29T21:07:53.088Z,97279.45
2018-04-29T21:10:26.673Z,97267.06
2018-04-29T21:13:00.430Z,97253.11
2018-04-29T21:15:34.372Z,97241.53
2018-04-29T21:18:07.992Z,97238.39
2018-04-29T21:20:41.535Z,97233.67
2018-04-29T21:23:15.163Z,97223.09
2018-04-29T21:25:48.624Z,97216.98
2018-04-29T21:28:22.204Z,97208.22
2018-04-29T21:30:55.953Z,97199.77
2018-04-29T21:33:29.506Z,97203.63
2018-04-29T21:36:03.492Z,97208.95
2018-04-29T21:38:37.017Z,97194.30
2018-04-29T21:41:10.822Z,97195.98
2018-04-29T21:43:44.343Z,97186.38
2018-04-29T21:46:18.028Z,97181.30
2018-04-29T21:48:51.774Z,97174.18
2018-04-29T21:51:25.425Z,97167.42
2018-04-29T21:53:58.931Z,97168.41
2018-04-29T21:56:32.556Z,97159.91
2018-04-29T21:59:06.080Z,97151.34
2018-04-29T22:01:39.600Z,97140.14
2018-04-29T22:04:13.134Z,97130.96
2018-04-29T22:06:46.685Z,97116.66
2018-04-29T22:09:20.295Z,97105.06
2018-04-29T22:11:53.881Z,97090.77
2018-04-29T22:14:27.390Z,97080.70
2018-04-29T22:17:01.171Z,97074.87
2018-04-29T22:19:34.833Z,97073.94
2018-04-29T22:22:08.353Z,97080.58
2018-04-29T22:24:41.979Z,97073.67
2018-04-29T22:27:15.619Z,97064.08
2018-04-29T22:29:49.178Z,97082.17
2018-04-29T22:32:22.847Z,97124.08
2018-04-29T22:34:56.487Z,97238.19
2018-04-29T22:37:30.264Z,97276.52
2018-04-29T22:40:03.954Z,97256.05
2018-04-29T22:42:37.554Z,97226.60
2018-04-29T22:45:11.016Z,97252.67
2018-04-29T22:47:44.776Z,97305.82
2018-04-29T22:50:18.327Z,97267.66
2018-04-29T22:52:52.039Z,97278.58
2018-04-29T22:55:25.981Z,97292.11
2018-04-29T22:57:59.629Z,97281.50
2018-04-29T23:00:33.272Z,97236.23
2018-04-29T23:03:06.900Z,97216.03
2018-04-29T23:05:40.405Z,97152.30
2018-04-29T23:08:14.167Z,97190.25
2018-04-29T23:10:47.844Z,97189.98
2018-04-29T23:13:21.421Z,97206.44
2018-04-29T23:15:55.035Z,97242.08
2018-04-29T23:18:28.651Z,97261.78
2018-04-29T23:21:02.396Z,97255.89
2018-04-29T23:23:35.944Z,97252.72
2018-04-29T23:26:09.505Z,97272.24
2018-04-29T23:28:43.117Z,97264.32
2018-04-29T23:31:16.928Z,97272.14
2018-04-29T23:33:50.629Z,97279.23
2018-04-29T23:36:24.403Z,97277.60
2018-04-29T23:38:57.992Z,97252.19
2018-04-29T23:41:31.563Z,97239.79
2018-04-29T23:44:05.357Z,97256.52
2018-04-29T23:46:39.089Z,97272.51
2018-04-29T23:49:12.717Z,97266.70
2018-04-29T23:51:46.332Z,97257.80
2018-04-29T23:54:19.881Z,97241.44
2018-04-29T23:56:53.476Z,97221.55
2018-04-29T23:59:27.140Z,97205.54
